createdAt,value
2024-05-09T00:00:18.214Z,18.90
2024-05-09T00:01:13.589Z,17.90
2024-05-09T00:02:12.800Z,16.90
2024-05-09T00:03:13.131Z,16.40
2024-05-09T00:04:13.627Z,16.50
2024-05-09T00:05:13.694Z,16.60
2024-05-09T00:06:14.009Z,18.50
2024-05-09T00:07:14.122Z,18.60
2024-05-09T00:08:17.616Z,18.20
2024-05-09T00:09:15.893Z,18.00
2024-05-09T00:10:25.055Z,17.80
2024-05-09T00:11:17.617Z,18.80
2024-05-09T00:12:15.870Z,19.70
2024-05-09T00:13:16.001Z,17.60
2024-05-09T00:14:17.349Z,18.60
2024-05-09T00:15:16.435Z,20.00
2024-05-09T00:16:16.985Z,19.30
2024-05-09T00:17:17.123Z,20.90
2024-05-09T00:18:17.645Z,20.30
2024-05-09T00:19:17.832Z,20.50
2024-05-09T00:20:24.413Z,20.40
2024-05-09T00:21:19.348Z,20.60
2024-05-09T00:22:19.573Z,23.50
2024-05-09T00:23:19.144Z,24.20
2024-05-09T00:24:19.123Z,19.00
2024-05-09T00:25:19.340Z,21.50
2024-05-09T00:26:19.998Z,21.40
2024-05-09T00:27:20.078Z,20.60
2024-05-09T00:28:20.133Z,22.20
2024-05-09T00:29:20.462Z,21.20
2024-05-09T00:30:28.220Z,23.80
2024-05-09T00:31:22.133Z,22.80
2024-05-09T00:32:21.645Z,24.80
2024-05-09T00:33:21.829Z,27.90
2024-05-09T00:34:21.808Z,24.00
2024-05-09T00:35:22.200Z,24.00
2024-05-09T00:36:22.178Z,21.90
2024-05-09T00:37:22.515Z,25.70
2024-05-09T00:38:22.822Z,29.30
2024-05-09T00:39:23.045Z,28.40
2024-05-09T00:40:31.162Z,33.40
2024-05-09T00:41:24.775Z,32.90
2024-05-09T00:42:23.877Z,36.20
2024-05-09T00:43:24.170Z,40.60
2024-05-09T00:44:24.705Z,40.40
2024-05-09T00:45:24.730Z,42.90
2024-05-09T00:46:26.287Z,42.60
2024-05-09T00:47:26.276Z,40.10
2024-05-09T00:48:25.716Z,40.50
2024-05-09T00:49:26.274Z,42.00
2024-05-09T00:50:35.275Z,40.00
2024-05-09T00:51:27.416Z,40.40
2024-05-09T00:52:26.795Z,39.90
2024-05-09T00:53:27.017Z,42.00
2024-05-09T00:54:27.234Z,41.30
2024-05-09T00:55:27.392Z,40.40
2024-05-09T00:56:27.786Z,43.80
2024-05-09T00:57:28.007Z,42.40
2024-05-09T00:58:28.338Z,41.80
2024-05-09T00:59:28.639Z,44.00
2024-05-09T01:00:35.987Z,43.70
2024-05-09T01:01:30.153Z,43.20
2024-05-09T01:02:29.498Z,43.30
2024-05-09T01:03:29.919Z,46.00
2024-05-09T01:04:30.011Z,45.60
2024-05-09T01:05:30.304Z,41.20
2024-05-09T01:06:31.556Z,44.10
2024-05-09T01:07:30.731Z,40.40
2024-05-09T01:08:31.377Z,44.80
2024-05-09T01:09:31.375Z,39.60
2024-05-09T01:10:34.732Z,38.90
2024-05-09T01:11:31.985Z,40.60
2024-05-09T01:12:33.494Z,38.00
2024-05-09T01:13:32.675Z,38.00
2024-05-09T01:14:33.407Z,38.60
2024-05-09T01:15:33.072Z,35.20
2024-05-09T01:16:33.277Z,34.70
2024-05-09T01:17:33.825Z,37.60
2024-05-09T01:18:33.885Z,36.50
2024-05-09T01:19:34.276Z,35.90
2024-05-09T01:20:41.250Z,41.50
2024-05-09T01:21:35.670Z,31.90
2024-05-09T01:22:35.296Z,37.80
2024-05-09T01:23:35.551Z,36.20
2024-05-09T01:24:35.731Z,36.90
2024-05-09T01:25:35.880Z,34.70
2024-05-09T01:26:36.082Z,37.20
2024-05-09T01:27:36.518Z,36.00
2024-05-09T01:28:36.722Z,35.40
2024-05-09T01:29:38.445Z,36.90
2024-05-09T01:30:38.079Z,37.20
2024-05-09T01:31:37.641Z,35.40
2024-05-09T01:32:38.647Z,35.40
2024-05-09T01:33:38.532Z,33.90
2024-05-09T01:34:38.508Z,35.00
2024-05-09T01:35:39.310Z,37.30
2024-05-09T01:36:38.924Z,31.30
2024-05-09T01:37:39.525Z,32.00
2024-05-09T01:38:39.500Z,34.10
2024-05-09T01:39:39.883Z,35.50
2024-05-09T01:40:40.518Z,35.90
2024-05-09T01:41:40.117Z,35.60
2024-05-09T01:42:40.426Z,35.10
2024-05-09T01:43:41.781Z,33.80
2024-05-09T01:44:41.020Z,34.80
2024-05-09T01:45:42.282Z,36.40
2024-05-09T01:46:42.587Z,32.90
2024-05-09T01:47:43.092Z,34.90
2024-05-09T01:48:42.281Z,34.10
2024-05-09T01:49:42.339Z,35.00
2024-05-09T01:50:43.419Z,36.40
2024-05-09T01:51:42.845Z,37.60
2024-05-09T01:52:43.303Z,30.90
2024-05-09T01:53:43.458Z,32.90
2024-05-09T01:54:43.738Z,34.80
2024-05-09T01:55:44.162Z,35.10
2024-05-09T01:56:44.310Z,33.10
2024-05-09T01:57:44.635Z,37.20
2024-05-09T01:58:45.212Z,34.60
2024-05-09T01:59:46.796Z,31.80
2024-05-09T02:00:45.568Z,34.40
2024-05-09T02:01:56.448Z,34.10
2024-05-09T02:02:47.337Z,30.00
2024-05-09T02:03:47.594Z,29.10
2024-05-09T02:04:46.788Z,36.50
2024-05-09T02:05:48.178Z,30.00
2024-05-09T02:06:50.265Z,30.20
2024-05-09T02:07:47.496Z,33.00
2024-05-09T02:08:49.678Z,30.40
2024-05-09T02:09:49.858Z,33.00
2024-05-09T02:10:48.851Z,34.30
2024-05-09T02:11:49.950Z,30.70
2024-05-09T02:12:49.034Z,32.80
2024-05-09T02:13:49.682Z,30.70
2024-05-09T02:14:49.539Z,29.80
2024-05-09T02:15:49.854Z,27.60
2024-05-09T02:16:55.215Z,29.40
2024-05-09T02:17:50.834Z,29.30
2024-05-09T02:18:51.393Z,27.90
2024-05-09T02:19:51.091Z,28.40
2024-05-09T02:20:51.228Z,28.30
2024-05-09T02:21:52.522Z,29.00
2024-05-09T02:22:51.817Z,30.20
2024-05-09T02:23:52.038Z,27.30
2024-05-09T02:24:52.209Z,28.60
2024-05-09T02:25:52.775Z,27.80
2024-05-09T02:26:52.833Z,30.80
2024-05-09T02:27:53.061Z,30.60
2024-05-09T02:28:53.421Z,31.10
2024-05-09T02:29:54.564Z,32.40
2024-05-09T02:30:53.788Z,31.40
2024-05-09T02:31:54.128Z,29.00
2024-05-09T02:32:54.422Z,28.10
2024-05-09T02:33:54.966Z,29.80
2024-05-09T02:34:54.915Z,29.70
2024-05-09T02:35:56.118Z,30.00
2024-05-09T02:36:55.505Z,29.40
2024-05-09T02:37:55.974Z,29.40
2024-05-09T02:38:56.062Z,30.10
2024-05-09T02:39:56.213Z,27.30
2024-05-09T02:40:56.604Z,27.70
2024-05-09T02:41:56.760Z,28.20
2024-05-09T02:42:57.019Z,25.80
2024-05-09T02:43:57.541Z,27.70
2024-05-09T02:44:57.598Z,26.40
2024-05-09T02:45:57.802Z,26.40
2024-05-09T02:46:58.249Z,26.80
2024-05-09T02:47:58.800Z,27.20
2024-05-09T02:48:58.639Z,25.40
2024-05-09T02:49:59.057Z,25.30
2024-05-09T02:50:59.237Z,26.40
2024-05-09T02:51:59.435Z,24.10
2024-05-09T02:53:00.800Z,25.70
2024-05-09T02:54:01.229Z,26.60
2024-05-09T02:55:00.365Z,23.30
2024-05-09T02:56:00.688Z,24.90
2024-05-09T02:57:01.177Z,25.60
2024-05-09T02:58:01.229Z,27.10
2024-05-09T02:59:01.682Z,24.10
2024-05-09T03:00:02.127Z,25.30
2024-05-09T03:01:02.148Z,25.80
2024-05-09T03:02:02.470Z,29.30
2024-05-09T03:03:02.828Z,27.20
2024-05-09T03:04:03.076Z,28.10
2024-05-09T03:05:03.357Z,25.90
2024-05-09T03:06:03.520Z,25.00
2024-05-09T03:07:03.749Z,27.50
2024-05-09T03:08:04.176Z,29.70
2024-05-09T03:09:04.653Z,28.90
2024-05-09T03:10:05.807Z,28.30
2024-05-09T03:11:05.847Z,30.80
2024-05-09T03:12:05.172Z,30.00
2024-05-09T03:13:05.862Z,30.80
2024-05-09T03:14:05.642Z,30.80
2024-05-09T03:15:06.725Z,28.40
2024-05-09T03:16:06.338Z,32.40
2024-05-09T03:17:06.709Z,30.00
2024-05-09T03:18:07.359Z,31.90
2024-05-09T03:19:07.183Z,33.10
2024-05-09T03:20:14.555Z,32.80
2024-05-09T03:21:08.988Z,31.80
2024-05-09T03:22:08.009Z,34.90
2024-05-09T03:23:09.602Z,33.20
2024-05-09T03:24:08.514Z,35.20
2024-05-09T03:25:08.926Z,31.10
2024-05-09T03:26:09.343Z,31.90
2024-05-09T03:27:09.367Z,31.40
2024-05-09T03:28:09.543Z,35.80
2024-05-09T03:29:10.211Z,37.40
2024-05-09T03:30:15.347Z,35.70
2024-05-09T03:31:11.880Z,33.70
2024-05-09T03:32:10.858Z,36.00
2024-05-09T03:33:11.253Z,35.70
2024-05-09T03:34:12.261Z,34.60
2024-05-09T03:35:11.696Z,37.70
2024-05-09T03:36:11.892Z,34.90
2024-05-09T03:37:12.165Z,36.50
2024-05-09T03:38:12.630Z,34.10
2024-05-09T03:39:12.639Z,36.10
2024-05-09T03:40:20.271Z,38.70
2024-05-09T03:41:14.399Z,39.20
2024-05-09T03:42:13.792Z,40.80
2024-05-09T03:43:13.883Z,40.70
2024-05-09T03:44:14.368Z,39.90
2024-05-09T03:45:14.780Z,38.80
2024-05-09T03:46:14.831Z,38.40
2024-05-09T03:47:15.108Z,44.50
2024-05-09T03:48:15.683Z,44.70
2024-05-09T03:49:15.872Z,43.50
2024-05-09T03:50:22.698Z,45.40
2024-05-09T03:51:17.268Z,50.30
2024-05-09T03:52:17.472Z,45.60
2024-05-09T03:53:16.923Z,45.60
2024-05-09T03:54:17.118Z,48.80
2024-05-09T03:55:17.633Z,46.50
2024-05-09T03:56:17.770Z,47.20
2024-05-09T03:57:17.861Z,52.60
2024-05-09T03:58:18.180Z,53.10
2024-05-09T03:59:18.582Z,53.50
2024-05-09T04:00:26.529Z,52.50
2024-05-09T04:01:20.799Z,52.90
2024-05-09T04:02:19.355Z,54.70
2024-05-09T04:03:19.961Z,53.50
2024-05-09T04:04:19.971Z,53.20
2024-05-09T04:05:20.310Z,56.70
2024-05-09T04:06:20.800Z,62.50
2024-05-09T04:07:20.969Z,61.80
2024-05-09T04:08:21.527Z,61.00
2024-05-09T04:09:21.504Z,65.60
2024-05-09T04:10:30.207Z,66.80
2024-05-09T04:11:23.238Z,79.10
2024-05-09T04:12:22.688Z,70.20
2024-05-09T04:13:22.776Z,68.30
2024-05-09T04:14:23.161Z,69.30
2024-05-09T04:15:23.375Z,67.60
2024-05-09T04:16:23.590Z,65.90
2024-05-09T04:17:23.960Z,68.00
2024-05-09T04:18:24.820Z,67.00
2024-05-09T04:19:24.658Z,71.50
2024-05-09T04:20:36.013Z,68.40
2024-05-09T04:21:25.973Z,67.30
2024-05-09T04:22:25.175Z,71.80
2024-05-09T04:23:25.495Z,68.20
2024-05-09T04:24:25.790Z,72.80
2024-05-09T04:25:26.123Z,69.40
2024-05-09T04:26:26.534Z,75.00
2024-05-09T04:27:26.722Z,72.10
2024-05-09T04:28:27.029Z,69.00
2024-05-09T04:29:27.480Z,73.50
2024-05-09T04:30:36.447Z,74.00
2024-05-09T04:31:28.975Z,74.60
2024-05-09T04:32:28.578Z,70.50
2024-05-09T04:33:28.789Z,72.90
2024-05-09T04:34:29.208Z,74.90
2024-05-09T04:35:29.432Z,73.30
2024-05-09T04:36:29.500Z,73.70
2024-05-09T04:37:29.884Z,74.20
2024-05-09T04:38:30.252Z,76.60
2024-05-09T04:39:30.910Z,79.20
2024-05-09T04:40:34.428Z,78.80
2024-05-09T04:41:32.159Z,81.50
2024-05-09T04:42:31.246Z,85.40
2024-05-09T04:43:31.562Z,82.20
2024-05-09T04:44:31.965Z,82.00
2024-05-09T04:45:32.121Z,76.30
2024-05-09T04:46:32.454Z,86.10
2024-05-09T04:47:32.931Z,82.00
2024-05-09T04:48:33.227Z,83.40
2024-05-09T04:49:33.557Z,85.40
2024-05-09T04:50:37.701Z,83.60
2024-05-09T04:51:35.214Z,84.00
2024-05-09T04:52:34.406Z,81.70
2024-05-09T04:53:36.029Z,85.50
2024-05-09T04:54:36.614Z,84.70
2024-05-09T04:55:36.162Z,83.10
2024-05-09T04:56:35.595Z,85.60
2024-05-09T04:57:35.731Z,80.40
2024-05-09T04:58:36.119Z,83.20
2024-05-09T04:59:36.340Z,84.10
2024-05-09T05:00:38.379Z,85.90
2024-05-09T05:01:37.036Z,85.10
2024-05-09T05:02:37.380Z,80.60
2024-05-09T05:03:37.712Z,77.20
2024-05-09T05:04:37.763Z,81.00
2024-05-09T05:05:38.278Z,77.80
2024-05-09T05:06:38.138Z,80.60
2024-05-09T05:07:38.467Z,80.20
2024-05-09T05:08:39.019Z,81.70
2024-05-09T05:09:39.105Z,78.40
2024-05-09T05:10:39.351Z,78.30
2024-05-09T05:11:40.993Z,78.70
2024-05-09T05:12:41.809Z,77.40
2024-05-09T05:13:41.649Z,77.20
2024-05-09T05:14:40.668Z,76.50
2024-05-09T05:15:40.878Z,70.70
2024-05-09T05:16:41.211Z,73.60
2024-05-09T05:17:41.690Z,77.30
2024-05-09T05:18:42.988Z,76.70
2024-05-09T05:19:42.093Z,76.70
2024-05-09T05:20:42.337Z,72.90
2024-05-09T05:21:42.495Z,74.90
2024-05-09T05:22:43.065Z,70.10
2024-05-09T05:23:43.640Z,73.60
2024-05-09T05:24:47.569Z,73.30
2024-05-09T05:25:43.745Z,75.10
2024-05-09T05:26:44.294Z,73.40
2024-05-09T05:27:44.312Z,72.00
2024-05-09T05:28:44.711Z,72.60
2024-05-09T05:29:44.939Z,67.20
2024-05-09T05:30:46.094Z,64.90
2024-05-09T05:31:45.549Z,66.80
2024-05-09T05:32:46.006Z,70.00
2024-05-09T05:33:46.143Z,69.00
2024-05-09T05:34:46.280Z,63.80
2024-05-09T05:35:46.634Z,65.90
2024-05-09T05:36:46.822Z,65.60
2024-05-09T05:37:47.173Z,59.90
2024-05-09T05:38:47.622Z,67.10
2024-05-09T05:39:47.822Z,62.50
2024-05-09T05:40:48.160Z,63.60
2024-05-09T05:41:49.010Z,62.30
2024-05-09T05:42:48.586Z,63.00
2024-05-09T05:43:48.964Z,60.30
2024-05-09T05:44:49.256Z,59.00
2024-05-09T05:45:49.807Z,60.60
2024-05-09T05:46:50.042Z,57.80
2024-05-09T05:47:50.442Z,53.60
2024-05-09T05:48:50.596Z,54.40
2024-05-09T05:49:50.789Z,51.70
2024-05-09T05:50:51.123Z,51.00
2024-05-09T05:51:51.297Z,54.40
2024-05-09T05:52:51.621Z,53.50
2024-05-09T05:53:51.895Z,49.90
2024-05-09T05:54:52.889Z,50.50
2024-05-09T05:55:52.629Z,52.40
2024-05-09T05:56:52.831Z,43.80
2024-05-09T05:57:53.151Z,47.40
2024-05-09T05:58:53.484Z,47.20
2024-05-09T05:59:53.780Z,47.30
2024-05-09T06:00:54.216Z,46.50
2024-05-09T06:01:54.399Z,43.90
2024-05-09T06:02:54.720Z,44.40
2024-05-09T06:03:54.994Z,44.10
2024-05-09T06:04:55.250Z,42.90
2024-05-09T06:05:55.432Z,40.50
2024-05-09T06:06:55.735Z,40.30
2024-05-09T06:07:56.288Z,42.80
2024-05-09T06:08:56.382Z,38.80
2024-05-09T06:09:56.676Z,40.90
2024-05-09T06:10:57.041Z,39.20
2024-05-09T06:11:57.286Z,41.60
2024-05-09T06:12:57.572Z,40.30
2024-05-09T06:13:57.919Z,41.90
2024-05-09T06:14:58.204Z,42.50
2024-05-09T06:15:58.492Z,43.50
2024-05-09T06:16:58.847Z,42.30
2024-05-09T06:18:00.253Z,40.70
2024-05-09T06:18:59.514Z,43.80
2024-05-09T06:19:59.716Z,40.40
2024-05-09T06:21:00.096Z,42.50
2024-05-09T06:22:00.338Z,41.20
2024-05-09T06:23:00.671Z,40.10
2024-05-09T06:24:02.556Z,40.10
2024-05-09T06:25:01.220Z,39.30
2024-05-09T06:26:01.484Z,39.00
2024-05-09T06:27:01.669Z,38.30
2024-05-09T06:28:01.892Z,39.40
2024-05-09T06:29:02.076Z,38.30
2024-05-09T06:30:03.024Z,36.70
2024-05-09T06:31:02.666Z,37.50
2024-05-09T06:32:03.031Z,38.00
2024-05-09T06:33:03.733Z,37.60
2024-05-09T06:34:03.762Z,40.10
2024-05-09T06:35:03.833Z,37.20
2024-05-09T06:36:04.194Z,38.70
2024-05-09T06:37:04.448Z,37.40
2024-05-09T06:38:04.926Z,37.90
2024-05-09T06:39:05.115Z,35.50
2024-05-09T06:40:07.314Z,34.00
2024-05-09T06:41:06.055Z,36.00
2024-05-09T06:42:06.043Z,37.00
2024-05-09T06:43:06.352Z,36.20
2024-05-09T06:44:06.680Z,30.90
2024-05-09T06:45:06.949Z,36.90
2024-05-09T06:46:07.970Z,36.20
2024-05-09T06:47:07.722Z,38.20
2024-05-09T06:48:08.110Z,37.60
2024-05-09T06:49:08.244Z,36.70
2024-05-09T06:50:16.321Z,33.30
2024-05-09T06:51:09.759Z,34.10
2024-05-09T06:52:08.851Z,33.20
2024-05-09T06:53:09.670Z,31.80
2024-05-09T06:54:09.538Z,31.10
2024-05-09T06:55:09.842Z,32.30
2024-05-09T06:56:10.311Z,33.00
2024-05-09T06:57:10.488Z,31.00
2024-05-09T06:58:10.874Z,30.70
2024-05-09T06:59:11.102Z,30.10
2024-05-09T07:00:15.658Z,30.50
2024-05-09T07:01:12.776Z,31.60
2024-05-09T07:02:12.095Z,32.30
2024-05-09T07:03:13.824Z,32.10
2024-05-09T07:04:13.124Z,30.10
2024-05-09T07:05:12.777Z,28.10
2024-05-09T07:06:13.092Z,32.20
2024-05-09T07:07:13.284Z,31.60
2024-05-09T07:08:14.272Z,30.10
2024-05-09T07:09:13.728Z,31.20
2024-05-09T07:10:21.707Z,33.20
2024-05-09T07:11:15.524Z,32.30
2024-05-09T07:12:15.052Z,32.60
2024-05-09T07:13:15.666Z,30.20
2024-05-09T07:14:15.428Z,30.80
2024-05-09T07:15:15.482Z,29.30
2024-05-09T07:16:15.894Z,28.60
2024-05-09T07:17:16.182Z,25.20
2024-05-09T07:18:18.025Z,27.50
2024-05-09T07:19:16.801Z,25.70
2024-05-09T07:20:23.626Z,24.20
2024-05-09T07:21:18.550Z,23.50
2024-05-09T07:22:17.701Z,26.50
2024-05-09T07:23:18.232Z,22.10
2024-05-09T07:24:19.295Z,21.50
2024-05-09T07:25:18.637Z,22.40
2024-05-09T07:26:19.059Z,21.50
2024-05-09T07:27:19.247Z,23.90
2024-05-09T07:28:19.667Z,21.90
2024-05-09T07:29:20.060Z,18.60
2024-05-09T07:30:27.097Z,21.40
2024-05-09T07:31:21.229Z,22.10
2024-05-09T07:32:20.746Z,24.50
2024-05-09T07:33:22.762Z,26.30
2024-05-09T07:34:21.856Z,25.60
2024-05-09T07:35:21.475Z,21.00
2024-05-09T07:36:21.722Z,19.70
2024-05-09T07:37:22.250Z,19.20
2024-05-09T07:38:22.462Z,20.90
2024-05-09T07:39:22.527Z,18.80
2024-05-09T07:40:32.277Z,19.90
2024-05-09T07:41:24.162Z,18.80
2024-05-09T07:42:23.615Z,20.00
2024-05-09T07:43:23.701Z,26.20
2024-05-09T07:44:24.211Z,19.80
2024-05-09T07:45:41.721Z,19.90
2024-05-09T07:47:20.378Z,22.90
2024-05-09T07:48:56.943Z,20.80
2024-05-09T07:53:32.295Z,16.20
2024-05-09T07:53:39.727Z,13.50
2024-05-09T07:54:27.807Z,16.40
2024-05-09T07:55:27.086Z,14.10
2024-05-09T07:56:27.876Z,14.50
2024-05-09T07:57:27.518Z,15.30
2024-05-09T07:58:28.019Z,15.90
2024-05-09T07:59:28.984Z,14.10
2024-05-09T08:00:31.507Z,15.50
2024-05-09T08:01:28.964Z,13.90
2024-05-09T08:02:29.047Z,14.30
2024-05-09T08:03:29.518Z,14.30
2024-05-09T08:04:29.730Z,16.60
2024-05-09T08:05:30.081Z,13.40
2024-05-09T08:06:31.207Z,10.20
2024-05-09T08:07:30.387Z,10.60
2024-05-09T08:08:31.702Z,11.70
2024-05-09T08:09:31.087Z,9.60
2024-05-09T08:10:31.394Z,9.80
2024-05-09T08:11:31.707Z,13.20
2024-05-09T08:12:31.854Z,10.00
2024-05-09T08:13:32.179Z,9.50
2024-05-09T08:14:32.551Z,11.50
2024-05-09T08:15:33.763Z,11.80
2024-05-09T08:16:33.127Z,12.30
2024-05-09T08:17:34.354Z,8.80
2024-05-09T08:18:33.727Z,9.90
2024-05-09T08:19:33.932Z,10.00
2024-05-09T08:20:35.450Z,10.80
2024-05-09T08:21:34.450Z,10.40
2024-05-09T08:22:35.151Z,9.40
2024-05-09T08:23:35.134Z,12.40
2024-05-09T08:24:35.162Z,11.00
2024-05-09T08:25:36.509Z,10.40
2024-05-09T08:26:36.553Z,10.20
2024-05-09T08:27:36.785Z,11.00
2024-05-09T08:28:36.932Z,10.50
2024-05-09T08:29:37.240Z,9.00
2024-05-09T08:30:38.206Z,10.40
2024-05-09T08:31:37.466Z,9.10
2024-05-09T08:32:38.040Z,12.00
2024-05-09T08:33:38.186Z,10.60
2024-05-09T08:34:39.204Z,11.50
2024-05-09T08:35:38.494Z,13.50
2024-05-09T08:36:38.852Z,12.10
2024-05-09T08:37:40.661Z,10.10
2024-05-09T08:38:39.310Z,11.80
2024-05-09T08:39:39.712Z,9.20
2024-05-09T08:40:40.035Z,9.00
2024-05-09T08:41:40.261Z,9.60
2024-05-09T08:42:40.558Z,12.80
2024-05-09T08:43:42.082Z,10.60
2024-05-09T08:44:41.185Z,8.70
2024-05-09T08:45:41.495Z,10.00
2024-05-09T08:46:41.786Z,9.60
2024-05-09T08:47:42.148Z,8.40
2024-05-09T08:48:42.501Z,9.00
2024-05-09T08:49:42.714Z,10.60
2024-05-09T08:50:43.287Z,8.90
2024-05-09T08:51:43.244Z,9.30
2024-05-09T08:52:43.540Z,8.40
2024-05-09T08:53:44.793Z,11.50
2024-05-09T08:54:44.511Z,9.60
2024-05-09T08:55:44.847Z,10.20
2024-05-09T08:56:44.676Z,8.20
2024-05-09T08:57:45.124Z,8.60
2024-05-09T08:58:45.294Z,10.40
2024-05-09T08:59:46.208Z,9.60
2024-05-09T09:00:46.383Z,8.80
2024-05-09T09:01:47.185Z,11.10
2024-05-09T09:02:46.500Z,8.50
2024-05-09T09:03:46.892Z,9.40
2024-05-09T09:04:46.948Z,7.70
2024-05-09T09:05:47.114Z,11.00
2024-05-09T09:06:47.649Z,11.90
2024-05-09T09:07:47.643Z,13.00
2024-05-09T09:08:48.017Z,9.20
2024-05-09T09:09:48.426Z,8.10
2024-05-09T09:10:48.998Z,12.20
2024-05-09T09:11:48.997Z,8.60
2024-05-09T09:12:49.617Z,7.70
2024-05-09T09:13:49.575Z,8.80
2024-05-09T09:14:49.905Z,10.10
2024-05-09T09:15:50.361Z,9.00
2024-05-09T09:16:50.374Z,9.40
2024-05-09T09:17:50.777Z,10.60
2024-05-09T09:18:51.577Z,11.80
2024-05-09T09:19:51.328Z,10.40
2024-05-09T09:20:53.111Z,9.30
2024-05-09T09:21:52.088Z,8.20
2024-05-09T09:22:52.202Z,10.60
2024-05-09T09:23:52.463Z,10.40
2024-05-09T09:24:53.733Z,11.70
2024-05-09T09:25:53.180Z,10.00
2024-05-09T09:26:54.330Z,9.50
2024-05-09T09:27:53.708Z,9.60
2024-05-09T09:28:53.982Z,9.60
2024-05-09T09:29:55.070Z,9.20
2024-05-09T09:30:54.663Z,9.60
2024-05-09T09:31:54.933Z,8.70
2024-05-09T09:32:55.324Z,9.50
2024-05-09T09:33:55.906Z,8.70
2024-05-09T09:34:56.535Z,9.40
2024-05-09T09:35:57.154Z,8.50
2024-05-09T09:36:56.632Z,8.70
2024-05-09T09:37:56.850Z,8.20
2024-05-09T09:38:57.179Z,7.60
2024-05-09T09:39:58.382Z,9.30
2024-05-09T09:40:57.723Z,9.40
2024-05-09T09:41:58.069Z,8.70
2024-05-09T09:42:58.390Z,8.80
2024-05-09T09:43:58.613Z,12.40
2024-05-09T09:45:04.696Z,7.00
2024-05-09T09:46:00.455Z,7.80
2024-05-09T09:46:59.694Z,6.30
2024-05-09T09:47:59.931Z,8.80
2024-05-09T09:49:00.115Z,7.60
2024-05-09T09:50:00.482Z,9.40
2024-05-09T09:51:00.496Z,9.00
2024-05-09T09:52:00.862Z,7.60
2024-05-09T09:53:01.103Z,8.70
2024-05-09T09:54:01.430Z,9.40
2024-05-09T09:55:01.773Z,7.80
2024-05-09T09:56:02.041Z,8.30
2024-05-09T09:57:02.305Z,11.50
2024-05-09T09:58:02.708Z,10.30
2024-05-09T09:59:02.820Z,9.00
2024-05-09T10:00:05.706Z,8.70
2024-05-09T10:01:03.524Z,9.20
2024-05-09T10:02:04.923Z,8.80
2024-05-09T10:03:04.093Z,8.80
2024-05-09T10:04:05.392Z,8.70
2024-05-09T10:05:04.727Z,10.10
2024-05-09T10:06:04.926Z,8.70
2024-05-09T10:07:05.183Z,8.40
2024-05-09T10:08:05.516Z,7.70
2024-05-09T10:09:06.641Z,8.50
2024-05-09T10:10:07.061Z,7.40
2024-05-09T10:11:07.005Z,10.00
2024-05-09T10:12:09.326Z,12.90
2024-05-09T10:13:07.585Z,11.60
2024-05-09T10:14:07.234Z,8.10
2024-05-09T10:15:07.514Z,10.60
2024-05-09T10:16:07.921Z,10.20
2024-05-09T10:17:08.154Z,8.70
2024-05-09T10:18:09.392Z,8.70
2024-05-09T10:19:08.649Z,8.30
2024-05-09T10:20:18.266Z,7.70
2024-05-09T10:21:10.385Z,8.60
2024-05-09T10:22:09.899Z,9.20
2024-05-09T10:23:09.650Z,7.80
2024-05-09T10:24:09.924Z,6.90
2024-05-09T10:25:10.305Z,7.10
2024-05-09T10:26:10.585Z,8.00
2024-05-09T10:27:10.905Z,8.80
2024-05-09T10:28:11.368Z,8.90
2024-05-09T10:29:11.503Z,8.30
2024-05-09T10:30:17.889Z,9.80
2024-05-09T10:31:13.636Z,7.20
2024-05-09T10:32:12.491Z,7.80
2024-05-09T10:33:13.015Z,7.00
2024-05-09T10:34:13.360Z,7.40
2024-05-09T10:35:13.334Z,8.60
2024-05-09T10:36:13.709Z,7.90
2024-05-09T10:37:13.972Z,7.20
2024-05-09T10:38:14.188Z,9.80
2024-05-09T10:39:14.412Z,8.20
2024-05-09T10:40:23.061Z,8.30
2024-05-09T10:41:16.108Z,9.20
2024-05-09T10:42:15.262Z,9.30
2024-05-09T10:43:15.675Z,9.70
2024-05-09T10:44:15.849Z,9.60
2024-05-09T10:45:16.203Z,8.90
2024-05-09T10:46:16.950Z,9.00
2024-05-09T10:47:16.667Z,8.10
2024-05-09T10:48:16.923Z,8.50
2024-05-09T10:49:17.358Z,8.50
2024-05-09T10:50:25.078Z,10.90
2024-05-09T10:51:18.816Z,7.60
2024-05-09T10:52:18.048Z,9.90
2024-05-09T10:53:18.362Z,8.60
2024-05-09T10:54:18.665Z,11.00
2024-05-09T10:55:19.162Z,8.00
2024-05-09T10:56:19.308Z,9.40
2024-05-09T10:57:19.549Z,8.00
2024-05-09T10:58:19.973Z,7.70
2024-05-09T10:59:20.916Z,7.80
2024-05-09T11:00:27.521Z,8.30
2024-05-09T11:01:21.978Z,8.30
2024-05-09T11:02:21.454Z,8.60
2024-05-09T11:03:21.406Z,10.70
2024-05-09T11:04:21.779Z,9.90
2024-05-09T11:05:22.701Z,8.90
2024-05-09T11:06:22.335Z,8.50
2024-05-09T11:07:22.811Z,8.20
2024-05-09T11:08:23.076Z,7.40
2024-05-09T11:09:23.347Z,8.90
2024-05-09T11:10:27.900Z,8.70
2024-05-09T11:11:25.019Z,8.30
2024-05-09T11:12:24.972Z,7.00
2024-05-09T11:13:24.902Z,9.70
2024-05-09T11:14:24.870Z,7.10
2024-05-09T11:15:25.222Z,7.10
2024-05-09T11:16:25.710Z,9.60
2024-05-09T11:17:26.026Z,10.00
2024-05-09T11:18:27.796Z,8.20
2024-05-09T11:19:26.454Z,7.80
2024-05-09T11:20:29.844Z,8.50
2024-05-09T11:21:27.134Z,8.80
2024-05-09T11:22:27.174Z,7.90
2024-05-09T11:23:27.444Z,9.20
2024-05-09T11:24:27.870Z,7.90
2024-05-09T11:25:28.080Z,6.80
2024-05-09T11:26:28.351Z,8.80
2024-05-09T11:27:28.737Z,8.30
2024-05-09T11:28:29.202Z,8.50
2024-05-09T11:29:29.384Z,10.00
2024-05-09T11:30:32.081Z,5.60
2024-05-09T11:31:30.068Z,9.00
2024-05-09T11:32:30.325Z,10.00
2024-05-09T11:33:30.512Z,8.10
2024-05-09T11:34:30.927Z,8.30
2024-05-09T11:35:31.113Z,7.70
2024-05-09T11:36:31.400Z,7.70
2024-05-09T11:37:32.709Z,10.40
2024-05-09T11:38:31.936Z,8.70
2024-05-09T11:39:32.243Z,8.30
2024-05-09T11:40:34.538Z,8.30
2024-05-09T11:41:32.861Z,9.30
2024-05-09T11:42:33.191Z,9.30
2024-05-09T11:43:33.610Z,8.00
2024-05-09T11:44:33.798Z,7.70
2024-05-09T11:45:34.313Z,9.40
2024-05-09T11:46:34.465Z,7.70
2024-05-09T11:47:35.768Z,9.80
2024-05-09T11:48:35.206Z,9.90
2024-05-09T11:49:35.527Z,9.40
2024-05-09T11:50:36.365Z,6.20
2024-05-09T11:51:35.956Z,7.20
2024-05-09T11:52:36.202Z,8.70
2024-05-09T11:53:36.521Z,10.10
2024-05-09T11:54:36.974Z,11.00
2024-05-09T11:55:37.234Z,10.20
2024-05-09T11:56:37.392Z,8.10
2024-05-09T11:57:37.751Z,11.60
2024-05-09T11:58:39.684Z,7.60
2024-05-09T11:59:38.332Z,7.50
2024-05-09T12:00:38.666Z,8.40
2024-05-09T12:01:38.975Z,7.00
2024-05-09T12:02:39.135Z,9.20
2024-05-09T12:03:39.571Z,7.80
2024-05-09T12:04:40.000Z,8.00
2024-05-09T12:05:40.049Z,9.20
2024-05-09T12:06:40.309Z,9.20
2024-05-09T12:07:40.495Z,7.50
2024-05-09T12:08:40.769Z,9.50
2024-05-09T12:09:41.133Z,8.20
2024-05-09T12:10:41.637Z,7.00
2024-05-09T12:11:41.768Z,8.50
2024-05-09T12:12:41.951Z,7.20
2024-05-09T12:13:42.236Z,10.30
2024-05-09T12:14:42.639Z,6.80
2024-05-09T12:15:42.826Z,7.90
2024-05-09T12:16:43.316Z,8.00
2024-05-09T12:17:44.162Z,7.90
2024-05-09T12:18:43.948Z,8.70
2024-05-09T12:19:44.105Z,8.90
2024-05-09T12:20:44.437Z,11.80
2024-05-09T12:21:45.237Z,10.90
2024-05-09T12:22:46.102Z,7.80
2024-05-09T12:23:46.347Z,7.60
2024-05-09T12:24:45.490Z,8.60
2024-05-09T12:25:45.968Z,7.10
2024-05-09T12:26:46.618Z,9.60
2024-05-09T12:27:46.235Z,7.30
2024-05-09T12:28:46.562Z,13.70
2024-05-09T12:29:47.101Z,11.00
2024-05-09T12:30:47.138Z,9.00
2024-05-09T12:31:47.428Z,8.70
2024-05-09T12:32:47.908Z,10.00
2024-05-09T12:33:48.085Z,9.40
2024-05-09T12:34:48.583Z,8.90
2024-05-09T12:35:50.845Z,8.50
2024-05-09T12:36:48.967Z,7.70
2024-05-09T12:37:49.302Z,10.30
2024-05-09T12:38:49.514Z,8.00
2024-05-09T12:39:49.841Z,6.70
2024-05-09T12:40:50.361Z,8.90
2024-05-09T12:41:51.352Z,7.30
2024-05-09T12:42:51.124Z,7.70
2024-05-09T12:43:51.020Z,9.20
2024-05-09T12:44:51.182Z,8.90
2024-05-09T12:45:51.504Z,9.40
2024-05-09T12:46:51.687Z,8.30
2024-05-09T12:47:52.062Z,7.00
2024-05-09T12:48:52.691Z,9.10
2024-05-09T12:49:52.670Z,9.80
2024-05-09T12:50:52.727Z,8.40
2024-05-09T12:51:53.009Z,8.40
2024-05-09T12:52:53.298Z,8.00
2024-05-09T12:53:53.521Z,12.00
2024-05-09T12:54:54.226Z,6.70
2024-05-09T12:55:59.882Z,8.70
2024-05-09T12:56:55.362Z,8.70
2024-05-09T12:57:54.817Z,7.20
2024-05-09T12:58:54.966Z,7.40
2024-05-09T12:59:55.250Z,8.40
2024-05-09T13:00:55.789Z,8.70
2024-05-09T13:01:58.796Z,7.70
2024-05-09T13:02:56.287Z,7.60
2024-05-09T13:03:56.874Z,8.30
2024-05-09T13:04:57.070Z,7.70
2024-05-09T13:05:57.219Z,9.50
2024-05-09T13:06:57.565Z,7.40
2024-05-09T13:07:57.603Z,8.10